sensor_id;sensor_type;location;lat;lon;timestamp;P1;durP1;ratioP1;P2;durP2;ratioP2
41865;SDS011;27539;43.222;27.558;2023-01-15T00:00:12;0.80;;;0.80;;
41865;SDS011;27539;43.222;27.558;2023-01-15T00:02:38;1.13;;;1.10;;
41865;SDS011;27539;43.222;27.558;2023-01-15T00:05:03;0.70;;;0.70;;
41865;SDS011;27539;43.222;27.558;2023-01-15T00:07:29;1.87;;;1.57;;
41865;SDS011;27539;43.222;27.558;2023-01-15T00:09:55;1.80;;;1.60;;
41865;SDS011;27539;43.222;27.558;2023-01-15T00:12:20;0.97;;;0.97;;
41865;SDS011;27539;43.222;27.558;2023-01-15T00:14:45;0.73;;;0.73;;
41865;SDS011;27539;43.222;27.558;2023-01-15T00:17:10;1.33;;;1.33;;
41865;SDS011;27539;43.222;27.558;2023-01-15T00:19:36;0.80;;;0.80;;
41865;SDS011;27539;43.222;27.558;2023-01-15T00:22:01;2.13;;;1.00;;
41865;SDS011;27539;43.222;27.558;2023-01-15T00:24:26;3.90;;;1.77;;
41865;SDS011;27539;43.222;27.558;2023-01-15T00:27:10;1.75;;;1.20;;
41865;SDS011;27539;43.222;27.558;2023-01-15T00:29:54;1.25;;;1.20;;
41865;SDS011;27539;43.222;27.558;2023-01-15T00:32:19;2.47;;;1.57;;
41865;SDS011;27539;43.222;27.558;2023-01-15T00:34:44;2.57;;;1.90;;
41865;SDS011;27539;43.222;27.558;2023-01-15T00:37:10;2.23;;;0.70;;
41865;SDS011;27539;43.222;27.558;2023-01-15T00:39:35;0.80;;;0.80;;
41865;SDS011;27539;43.222;27.558;2023-01-15T00:42:00;1.80;;;1.33;;
41865;SDS011;27539;43.222;27.558;2023-01-15T00:44:26;1.37;;;1.27;;
41865;SDS011;27539;43.222;27.558;2023-01-15T00:46:51;1.47;;;1.17;;
41865;SDS011;27539;43.222;27.558;2023-01-15T00:49:16;1.70;;;1.60;;
41865;SDS011;27539;43.222;27.558;2023-01-15T00:51:42;2.37;;;2.13;;
41865;SDS011;27539;43.222;27.558;2023-01-15T00:54:07;4.00;;;1.63;;
41865;SDS011;27539;43.222;27.558;2023-01-15T00:56:32;2.93;;;1.47;;
41865;SDS011;27539;43.222;27.558;2023-01-15T00:59:00;2.30;;;1.33;;
41865;SDS011;27539;43.222;27.558;2023-01-15T01:01:25;2.10;;;1.58;;
41865;SDS011;27539;43.222;27.558;2023-01-15T01:03:50;4.40;;;2.47;;
41865;SDS011;27539;43.222;27.558;2023-01-15T01:06:17;2.05;;;1.83;;
41865;SDS011;27539;43.222;27.558;2023-01-15T01:08:42;2.23;;;1.47;;
41865;SDS011;27539;43.222;27.558;2023-01-15T01:11:10;1.92;;;1.83;;
41865;SDS011;27539;43.222;27.558;2023-01-15T01:16:02;5.18;;;1.27;;
41865;SDS011;27539;43.222;27.558;2023-01-15T01:18:28;1.30;;;1.20;;
41865;SDS011;27539;43.222;27.558;2023-01-15T01:20:53;0.97;;;0.97;;
41865;SDS011;27539;43.222;27.558;2023-01-15T01:23:19;1.90;;;1.80;;
41865;SDS011;27539;43.222;27.558;2023-01-15T01:28:11;7.13;;;1.63;;
41865;SDS011;27539;43.222;27.558;2023-01-15T01:30:36;0.97;;;0.97;;
41865;SDS011;27539;43.222;27.558;2023-01-15T01:33:02;1.43;;;1.33;;
41865;SDS011;27539;43.222;27.558;2023-01-15T01:35:27;2.10;;;1.43;;
41865;SDS011;27539;43.222;27.558;2023-01-15T01:37:52;3.50;;;1.87;;
41865;SDS011;27539;43.222;27.558;2023-01-15T01:40:18;1.40;;;1.33;;
41865;SDS011;27539;43.222;27.558;2023-01-15T01:42:43;2.07;;;1.87;;
41865;SDS011;27539;43.222;27.558;2023-01-15T01:45:26;1.05;;;1.05;;
41865;SDS011;27539;43.222;27.558;2023-01-15T01:47:53;2.88;;;1.67;;
41865;SDS011;27539;43.222;27.558;2023-01-15T01:50:19;1.65;;;1.48;;
41865;SDS011;27539;43.222;27.558;2023-01-15T01:52:46;0.67;;;0.67;;
41865;SDS011;27539;43.222;27.558;2023-01-15T01:55:13;3.90;;;2.15;;
41865;SDS011;27539;43.222;27.558;2023-01-15T01:57:40;2.28;;;1.27;;
41865;SDS011;27539;43.222;27.558;2023-01-15T02:00:06;2.30;;;2.03;;
41865;SDS011;27539;43.222;27.558;2023-01-15T02:02:32;1.10;;;0.83;;
41865;SDS011;27539;43.222;27.558;2023-01-15T02:04:57;3.40;;;2.20;;
41865;SDS011;27539;43.222;27.558;2023-01-15T02:07:23;0.90;;;0.70;;
41865;SDS011;27539;43.222;27.558;2023-01-15T02:09:48;1.40;;;0.70;;
41865;SDS011;27539;43.222;27.558;2023-01-15T02:12:57;1.20;;;1.10;;
41865;SDS011;27539;43.222;27.558;2023-01-15T02:17:35;1.48;;;1.40;;
41865;SDS011;27539;43.222;27.558;2023-01-15T02:22:49;1.23;;;0.90;;
41865;SDS011;27539;43.222;27.558;2023-01-15T02:25:31;1.33;;;1.27;;
41865;SDS011;27539;43.222;27.558;2023-01-15T02:28:03;3.00;;;0.90;;
41865;SDS011;27539;43.222;27.558;2023-01-15T02:30:33;0.68;;;0.68;;
41865;SDS011;27539;43.222;27.558;2023-01-15T02:33:22;3.85;;;1.20;;
41865;SDS011;27539;43.222;27.558;2023-01-15T02:35:47;1.05;;;0.95;;
41865;SDS011;27539;43.222;27.558;2023-01-15T02:38:15;2.67;;;1.63;;
41865;SDS011;27539;43.222;27.558;2023-01-15T02:40:42;7.65;;;2.05;;
41865;SDS011;27539;43.222;27.558;2023-01-15T02:43:07;0.90;;;0.90;;
41865;SDS011;27539;43.222;27.558;2023-01-15T02:45:34;0.60;;;0.60;;
41865;SDS011;27539;43.222;27.558;2023-01-15T02:48:13;1.73;;;0.98;;
41865;SDS011;27539;43.222;27.558;2023-01-15T02:50:39;2.75;;;0.88;;
41865;SDS011;27539;43.222;27.558;2023-01-15T02:53:07;0.52;;;0.52;;
41865;SDS011;27539;43.222;27.558;2023-01-15T02:55:38;2.97;;;1.65;;
41865;SDS011;27539;43.222;27.558;2023-01-15T02:58:06;1.10;;;1.10;;
41865;SDS011;27539;43.222;27.558;2023-01-15T03:00:34;2.25;;;2.15;;
41865;SDS011;27539;43.222;27.558;2023-01-15T03:05:59;0.75;;;0.75;;
41865;SDS011;27539;43.222;27.558;2023-01-15T03:08:22;3.40;;;1.98;;
41865;SDS011;27539;43.222;27.558;2023-01-15T03:10:51;5.27;;;2.03;;
41865;SDS011;27539;43.222;27.558;2023-01-15T03:13:30;1.02;;;1.02;;
41865;SDS011;27539;43.222;27.558;2023-01-15T03:21:25;1.70;;;1.60;;
41865;SDS011;27539;43.222;27.558;2023-01-15T03:23:52;2.42;;;1.40;;
41865;SDS011;27539;43.222;27.558;2023-01-15T03:28:44;3.92;;;1.23;;
41865;SDS011;27539;43.222;27.558;2023-01-15T03:31:09;0.90;;;0.90;;
41865;SDS011;27539;43.222;27.558;2023-01-15T03:33:35;0.60;;;0.60;;
41865;SDS011;27539;43.222;27.558;2023-01-15T03:36:00;0.90;;;0.87;;
41865;SDS011;27539;43.222;27.558;2023-01-15T03:38:33;1.13;;;1.03;;
41865;SDS011;27539;43.222;27.558;2023-01-15T03:41:10;1.25;;;1.10;;
41865;SDS011;27539;43.222;27.558;2023-01-15T03:46:14;3.88;;;1.67;;
41865;SDS011;27539;43.222;27.558;2023-01-15T03:48:55;1.92;;;1.77;;
41865;SDS011;27539;43.222;27.558;2023-01-15T03:54:18;1.13;;;1.00;;
41865;SDS011;27539;43.222;27.558;2023-01-15T03:56:48;0.77;;;0.77;;
41865;SDS011;27539;43.222;27.558;2023-01-15T03:59:27;1.65;;;1.55;;
41865;SDS011;27539;43.222;27.558;2023-01-15T04:01:53;2.03;;;1.48;;
41865;SDS011;27539;43.222;27.558;2023-01-15T04:04:49;10.48;;;1.10;;
41865;SDS011;27539;43.222;27.558;2023-01-15T04:07:15;4.32;;;1.55;;
41865;SDS011;27539;43.222;27.558;2023-01-15T04:09:41;6.33;;;1.17;;
41865;SDS011;27539;43.222;27.558;2023-01-15T04:12:06;2.13;;;1.67;;
41865;SDS011;27539;43.222;27.558;2023-01-15T04:14:32;3.17;;;2.40;;
41865;SDS011;27539;43.222;27.558;2023-01-15T04:16:57;4.70;;;2.07;;
41865;SDS011;27539;43.222;27.558;2023-01-15T04:19:23;0.80;;;0.80;;
41865;SDS011;27539;43.222;27.558;2023-01-15T04:21:48;1.67;;;1.50;;
41865;SDS011;27539;43.222;27.558;2023-01-15T04:24:13;3.07;;;1.53;;
41865;SDS011;27539;43.222;27.558;2023-01-15T04:26:38;2.03;;;1.93;;
41865;SDS011;27539;43.222;27.558;2023-01-15T04:29:04;4.33;;;1.80;;
41865;SDS011;27539;43.222;27.558;2023-01-15T04:31:29;2.27;;;1.70;;
41865;SDS011;27539;43.222;27.558;2023-01-15T04:33:57;4.60;;;3.00;;
41865;SDS011;27539;43.222;27.558;2023-01-15T04:36:22;12.30;;;3.10;;
41865;SDS011;27539;43.222;27.558;2023-01-15T04:38:47;1.40;;;0.57;;
41865;SDS011;27539;43.222;27.558;2023-01-15T04:41:13;3.10;;;2.10;;
41865;SDS011;27539;43.222;27.558;2023-01-15T04:43:57;1.70;;;1.25;;
41865;SDS011;27539;43.222;27.558;2023-01-15T04:46:32;4.07;;;2.33;;
41865;SDS011;27539;43.222;27.558;2023-01-15T04:48:58;9.27;;;2.05;;
41865;SDS011;27539;43.222;27.558;2023-01-15T04:51:23;1.13;;;1.10;;
41865;SDS011;27539;43.222;27.558;2023-01-15T04:53:48;3.97;;;1.27;;
41865;SDS011;27539;43.222;27.558;2023-01-15T04:59:14;2.33;;;1.95;;
41865;SDS011;27539;43.222;27.558;2023-01-15T05:01:39;1.37;;;1.27;;
41865;SDS011;27539;43.222;27.558;2023-01-15T05:04:04;1.40;;;1.30;;
41865;SDS011;27539;43.222;27.558;2023-01-15T05:06:30;2.30;;;1.77;;
41865;SDS011;27539;43.222;27.558;2023-01-15T05:08:56;1.67;;;1.57;;
41865;SDS011;27539;43.222;27.558;2023-01-15T05:11:21;3.93;;;2.27;;
41865;SDS011;27539;43.222;27.558;2023-01-15T05:13:47;2.00;;;1.83;;
41865;SDS011;27539;43.222;27.558;2023-01-15T05:18:38;2.23;;;2.07;;
41865;SDS011;27539;43.222;27.558;2023-01-15T05:21:03;4.33;;;2.33;;
41865;SDS011;27539;43.222;27.558;2023-01-15T05:23:29;2.13;;;0.90;;
41865;SDS011;27539;43.222;27.558;2023-01-15T05:25:54;2.43;;;2.23;;
41865;SDS011;27539;43.222;27.558;2023-01-15T05:28:19;4.27;;;2.77;;
41865;SDS011;27539;43.222;27.558;2023-01-15T05:30:44;1.37;;;1.30;;
41865;SDS011;27539;43.222;27.558;2023-01-15T05:33:10;1.27;;;1.17;;
41865;SDS011;27539;43.222;27.558;2023-01-15T05:35:35;1.00;;;1.00;;
41865;SDS011;27539;43.222;27.558;2023-01-15T05:38:00;0.97;;;0.90;;
41865;SDS011;27539;43.222;27.558;2023-01-15T05:40:27;1.80;;;1.63;;
41865;SDS011;27539;43.222;27.558;2023-01-15T05:42:53;1.47;;;1.37;;
41865;SDS011;27539;43.222;27.558;2023-01-15T05:45:18;1.17;;;1.13;;
41865;SDS011;27539;43.222;27.558;2023-01-15T05:47:43;2.23;;;1.90;;
41865;SDS011;27539;43.222;27.558;2023-01-15T05:50:09;1.33;;;1.10;;
41865;SDS011;27539;43.222;27.558;2023-01-15T05:52:34;4.73;;;2.10;;
41865;SDS011;27539;43.222;27.558;2023-01-15T05:55:20;0.60;;;0.60;;
41865;SDS011;27539;43.222;27.558;2023-01-15T05:57:46;2.30;;;1.03;;
41865;SDS011;27539;43.222;27.558;2023-01-15T06:00:11;3.83;;;2.00;;
41865;SDS011;27539;43.222;27.558;2023-01-15T06:02:36;2.53;;;2.37;;
41865;SDS011;27539;43.222;27.558;2023-01-15T06:05:02;1.63;;;1.20;;
41865;SDS011;27539;43.222;27.558;2023-01-15T06:07:27;3.20;;;1.70;;
41865;SDS011;27539;43.222;27.558;2023-01-15T06:09:52;1.50;;;1.30;;
41865;SDS011;27539;43.222;27.558;2023-01-15T06:12:18;4.10;;;3.03;;
41865;SDS011;27539;43.222;27.558;2023-01-15T06:14:43;0.73;;;0.73;;
41865;SDS011;27539;43.222;27.558;2023-01-15T06:17:08;2.17;;;2.07;;
41865;SDS011;27539;43.222;27.558;2023-01-15T06:19:34;3.33;;;2.20;;
41865;SDS011;27539;43.222;27.558;2023-01-15T06:21:59;1.50;;;1.03;;
41865;SDS011;27539;43.222;27.558;2023-01-15T06:24:24;0.70;;;0.70;;
41865;SDS011;27539;43.222;27.558;2023-01-15T06:26:49;3.90;;;1.67;;
41865;SDS011;27539;43.222;27.558;2023-01-15T06:29:15;3.83;;;1.07;;
41865;SDS011;27539;43.222;27.558;2023-01-15T06:31:42;1.00;;;0.82;;
41865;SDS011;27539;43.222;27.558;2023-01-15T06:34:08;0.70;;;0.70;;
41865;SDS011;27539;43.222;27.558;2023-01-15T06:36:33;0.50;;;0.50;;
41865;SDS011;27539;43.222;27.558;2023-01-15T06:38:59;3.03;;;1.83;;
41865;SDS011;27539;43.222;27.558;2023-01-15T06:41:25;4.30;;;1.23;;
41865;SDS011;27539;43.222;27.558;2023-01-15T06:44:13;2.75;;;1.92;;
41865;SDS011;27539;43.222;27.558;2023-01-15T06:49:41;3.25;;;0.93;;
41865;SDS011;27539;43.222;27.558;2023-01-15T06:52:06;2.00;;;1.37;;
41865;SDS011;27539;43.222;27.558;2023-01-15T06:54:31;4.20;;;1.20;;
41865;SDS011;27539;43.222;27.558;2023-01-15T06:56:57;2.73;;;1.33;;
41865;SDS011;27539;43.222;27.558;2023-01-15T06:59:22;3.93;;;1.70;;
41865;SDS011;27539;43.222;27.558;2023-01-15T07:01:47;0.97;;;0.90;;
41865;SDS011;27539;43.222;27.558;2023-01-15T07:04:13;0.77;;;0.67;;
41865;SDS011;27539;43.222;27.558;2023-01-15T07:06:38;2.17;;;1.50;;
41865;SDS011;27539;43.222;27.558;2023-01-15T07:09:04;0.40;;;0.40;;
41865;SDS011;27539;43.222;27.558;2023-01-15T07:11:29;4.63;;;1.20;;
41865;SDS011;27539;43.222;27.558;2023-01-15T07:13:54;0.80;;;0.80;;
41865;SDS011;27539;43.222;27.558;2023-01-15T07:16:33;1.90;;;1.70;;
41865;SDS011;27539;43.222;27.558;2023-01-15T07:18:58;3.42;;;2.38;;
41865;SDS011;27539;43.222;27.558;2023-01-15T07:21:24;1.53;;;1.43;;
41865;SDS011;27539;43.222;27.558;2023-01-15T07:23:49;2.33;;;2.13;;
41865;SDS011;27539;43.222;27.558;2023-01-15T07:26:14;0.87;;;0.83;;
41865;SDS011;27539;43.222;27.558;2023-01-15T07:28:40;2.13;;;2.03;;
41865;SDS011;27539;43.222;27.558;2023-01-15T07:31:05;1.70;;;1.60;;
41865;SDS011;27539;43.222;27.558;2023-01-15T07:33:31;2.27;;;1.10;;
41865;SDS011;27539;43.222;27.558;2023-01-15T07:35:56;1.73;;;1.40;;
41865;SDS011;27539;43.222;27.558;2023-01-15T07:38:52;1.00;;;1.00;;
41865;SDS011;27539;43.222;27.558;2023-01-15T07:41:17;3.27;;;1.90;;
41865;SDS011;27539;43.222;27.558;2023-01-15T07:44:01;1.10;;;1.08;;
41865;SDS011;27539;43.222;27.558;2023-01-15T07:46:45;6.20;;;1.50;;
41865;SDS011;27539;43.222;27.558;2023-01-15T07:49:29;3.13;;;1.27;;
41865;SDS011;27539;43.222;27.558;2023-01-15T07:52:09;1.55;;;1.48;;
41865;SDS011;27539;43.222;27.558;2023-01-15T07:54:35;1.10;;;1.07;;
41865;SDS011;27539;43.222;27.558;2023-01-15T07:57:19;2.70;;;2.13;;
41865;SDS011;27539;43.222;27.558;2023-01-15T07:59:45;2.90;;;1.42;;
41865;SDS011;27539;43.222;27.558;2023-01-15T08:02:10;2.03;;;1.37;;
41865;SDS011;27539;43.222;27.558;2023-01-15T08:04:36;2.10;;;0.73;;
41865;SDS011;27539;43.222;27.558;2023-01-15T08:07:02;3.60;;;1.20;;
41865;SDS011;27539;43.222;27.558;2023-01-15T08:09:28;0.63;;;0.63;;
41865;SDS011;27539;43.222;27.558;2023-01-15T08:11:54;1.20;;;1.10;;
41865;SDS011;27539;43.222;27.558;2023-01-15T08:14:37;1.40;;;1.30;;
41865;SDS011;27539;43.222;27.558;2023-01-15T08:17:21;1.55;;;0.90;;
41865;SDS011;27539;43.222;27.558;2023-01-15T08:19:47;2.77;;;0.77;;
41865;SDS011;27539;43.222;27.558;2023-01-15T08:22:12;1.37;;;1.27;;
41865;SDS011;27539;43.222;27.558;2023-01-15T08:24:37;1.17;;;1.10;;
41865;SDS011;27539;43.222;27.558;2023-01-15T08:27:03;0.75;;;0.55;;
41865;SDS011;27539;43.222;27.558;2023-01-15T08:29:29;1.83;;;1.37;;
41865;SDS011;27539;43.222;27.558;2023-01-15T08:32:08;0.77;;;0.75;;
41865;SDS011;27539;43.222;27.558;2023-01-15T08:34:34;1.77;;;1.67;;
41865;SDS011;27539;43.222;27.558;2023-01-15T08:36:59;0.80;;;0.80;;
41865;SDS011;27539;43.222;27.558;2023-01-15T08:39:27;1.63;;;1.42;;
41865;SDS011;27539;43.222;27.558;2023-01-15T08:41:53;1.95;;;1.58;;
41865;SDS011;27539;43.222;27.558;2023-01-15T08:44:18;2.17;;;1.63;;
41865;SDS011;27539;43.222;27.558;2023-01-15T08:46:45;1.25;;;1.00;;
41865;SDS011;27539;43.222;27.558;2023-01-15T08:52:31;4.95;;;2.40;;
41865;SDS011;27539;43.222;27.558;2023-01-15T08:54:56;4.27;;;3.10;;
41865;SDS011;27539;43.222;27.558;2023-01-15T08:57:22;2.30;;;2.10;;
41865;SDS011;27539;43.222;27.558;2023-01-15T08:59:48;1.10;;;1.00;;
41865;SDS011;27539;43.222;27.558;2023-01-15T09:02:14;7.30;;;3.42;;
41865;SDS011;27539;43.222;27.558;2023-01-15T09:04:40;9.57;;;3.33;;
41865;SDS011;27539;43.222;27.558;2023-01-15T09:07:05;5.30;;;2.10;;
41865;SDS011;27539;43.222;27.558;2023-01-15T09:09:32;1.95;;;1.85;;
41865;SDS011;27539;43.222;27.558;2023-01-15T09:11:59;2.45;;;1.95;;
41865;SDS011;27539;43.222;27.558;2023-01-15T09:14:24;3.10;;;1.25;;
41865;SDS011;27539;43.222;27.558;2023-01-15T09:17:05;6.97;;;1.83;;
41865;SDS011;27539;43.222;27.558;2023-01-15T09:19:30;6.97;;;3.43;;
41865;SDS011;27539;43.222;27.558;2023-01-15T09:21:55;2.10;;;1.90;;
41865;SDS011;27539;43.222;27.558;2023-01-15T09:24:48;2.38;;;2.17;;
41865;SDS011;27539;43.222;27.558;2023-01-15T09:27:14;3.70;;;2.33;;
41865;SDS011;27539;43.222;27.558;2023-01-15T09:29:40;3.93;;;2.50;;
41865;SDS011;27539;43.222;27.558;2023-01-15T09:32:05;4.22;;;2.20;;
41865;SDS011;27539;43.222;27.558;2023-01-15T09:34:32;2.47;;;2.15;;
41865;SDS011;27539;43.222;27.558;2023-01-15T09:36:57;2.43;;;1.93;;
41865;SDS011;27539;43.222;27.558;2023-01-15T09:39:22;5.57;;;2.23;;
41865;SDS011;27539;43.222;27.558;2023-01-15T09:41:54;2.60;;;2.17;;
41865;SDS011;27539;43.222;27.558;2023-01-15T09:47:17;1.33;;;1.13;;
41865;SDS011;27539;43.222;27.558;2023-01-15T09:49:50;1.05;;;1.00;;
41865;SDS011;27539;43.222;27.558;2023-01-15T09:57:28;1.42;;;1.35;;
41865;SDS011;27539;43.222;27.558;2023-01-15T09:59:54;1.90;;;1.52;;
41865;SDS011;27539;43.222;27.558;2023-01-15T10:02:37;1.75;;;0.88;;
41865;SDS011;27539;43.222;27.558;2023-01-15T10:05:14;1.48;;;1.38;;
41865;SDS011;27539;43.222;27.558;2023-01-15T10:07:44;2.55;;;2.03;;
41865;SDS011;27539;43.222;27.558;2023-01-15T10:10:13;1.90;;;1.80;;
41865;SDS011;27539;43.222;27.558;2023-01-15T10:12:39;5.13;;;1.75;;
41865;SDS011;27539;43.222;27.558;2023-01-15T10:15:31;3.08;;;2.80;;
41865;SDS011;27539;43.222;27.558;2023-01-15T10:17:59;3.03;;;1.92;;
41865;SDS011;27539;43.222;27.558;2023-01-15T10:25:47;3.22;;;2.60;;
41865;SDS011;27539;43.222;27.558;2023-01-15T10:31:03;7.30;;;1.88;;
41865;SDS011;27539;43.222;27.558;2023-01-15T10:33:37;3.25;;;1.95;;
41865;SDS011;27539;43.222;27.558;2023-01-15T10:36:39;3.55;;;3.15;;
41865;SDS011;27539;43.222;27.558;2023-01-15T10:39:01;3.55;;;1.92;;
41865;SDS011;27539;43.222;27.558;2023-01-15T10:43:57;8.60;;;3.50;;
41865;SDS011;27539;43.222;27.558;2023-01-15T10:46:24;3.92;;;2.20;;
41865;SDS011;27539;43.222;27.558;2023-01-15T10:48:55;2.33;;;2.10;;
41865;SDS011;27539;43.222;27.558;2023-01-15T10:51:39;5.05;;;2.35;;
41865;SDS011;27539;43.222;27.558;2023-01-15T10:54:13;1.77;;;1.70;;
41865;SDS011;27539;43.222;27.558;2023-01-15T10:56:50;0.85;;;0.85;;
41865;SDS011;27539;43.222;27.558;2023-01-15T11:01:49;1.00;;;1.00;;
41865;SDS011;27539;43.222;27.558;2023-01-15T11:04:15;2.97;;;0.93;;
41865;SDS011;27539;43.222;27.558;2023-01-15T11:06:40;1.98;;;1.60;;
41865;SDS011;27539;43.222;27.558;2023-01-15T11:09:08;2.63;;;2.37;;
41865;SDS011;27539;43.222;27.558;2023-01-15T11:11:44;4.82;;;3.20;;
41865;SDS011;27539;43.222;27.558;2023-01-15T11:14:38;3.10;;;1.85;;
41865;SDS011;27539;43.222;27.558;2023-01-15T11:17:42;3.30;;;3.00;;
41865;SDS011;27539;43.222;27.558;2023-01-15T11:22:53;2.17;;;2.05;;
41865;SDS011;27539;43.222;27.558;2023-01-15T11:25:28;3.30;;;1.83;;
41865;SDS011;27539;43.222;27.558;2023-01-15T11:27:54;4.38;;;1.95;;
41865;SDS011;27539;43.222;27.558;2023-01-15T11:30:24;2.28;;;1.98;;
41865;SDS011;27539;43.222;27.558;2023-01-15T11:32:53;2.88;;;2.63;;
41865;SDS011;27539;43.222;27.558;2023-01-15T11:35:19;1.63;;;1.50;;
41865;SDS011;27539;43.222;27.558;2023-01-15T11:37:44;5.13;;;2.83;;
41865;SDS011;27539;43.222;27.558;2023-01-15T11:40:15;2.40;;;2.23;;
41865;SDS011;27539;43.222;27.558;2023-01-15T11:42:44;7.05;;;2.63;;
41865;SDS011;27539;43.222;27.558;2023-01-15T11:45:28;2.92;;;2.13;;
41865;SDS011;27539;43.222;27.558;2023-01-15T11:48:16;4.10;;;2.50;;
41865;SDS011;27539;43.222;27.558;2023-01-15T11:51:16;6.70;;;3.65;;
41865;SDS011;27539;43.222;27.558;2023-01-15T11:53:46;2.63;;;2.03;;
41865;SDS011;27539;43.222;27.558;2023-01-15T11:56:14;10.25;;;2.83;;
41865;SDS011;27539;43.222;27.558;2023-01-15T11:58:42;4.53;;;2.13;;
41865;SDS011;27539;43.222;27.558;2023-01-15T12:01:10;3.97;;;1.67;;
41865;SDS011;27539;43.222;27.558;2023-01-15T12:03:36;3.85;;;1.88;;
41865;SDS011;27539;43.222;27.558;2023-01-15T12:06:05;6.03;;;1.73;;
41865;SDS011;27539;43.222;27.558;2023-01-15T12:08:42;3.95;;;2.85;;
41865;SDS011;27539;43.222;27.558;2023-01-15T12:23:49;2.55;;;2.35;;
41865;SDS011;27539;43.222;27.558;2023-01-15T12:28:48;3.80;;;3.30;;
41865;SDS011;27539;43.222;27.558;2023-01-15T12:31:17;3.20;;;2.15;;
41865;SDS011;27539;43.222;27.558;2023-01-15T12:33:44;3.38;;;3.08;;
41865;SDS011;27539;43.222;27.558;2023-01-15T12:41:14;4.03;;;3.45;;
41865;SDS011;27539;43.222;27.558;2023-01-15T12:43:45;1.60;;;1.50;;
41865;SDS011;27539;43.222;27.558;2023-01-15T12:46:32;2.60;;;2.35;;
41865;SDS011;27539;43.222;27.558;2023-01-15T12:49:02;6.43;;;4.28;;
41865;SDS011;27539;43.222;27.558;2023-01-15T12:51:34;4.03;;;3.15;;
41865;SDS011;27539;43.222;27.558;2023-01-15T12:54:10;4.35;;;3.63;;
41865;SDS011;27539;43.222;27.558;2023-01-15T12:57:39;6.63;;;4.35;;
41865;SDS011;27539;43.222;27.558;2023-01-15T13:04:38;6.00;;;4.38;;
41865;SDS011;27539;43.222;27.558;2023-01-15T13:09:44;4.43;;;2.92;;
41865;SDS011;27539;43.222;27.558;2023-01-15T13:12:13;4.72;;;3.28;;
41865;SDS011;27539;43.222;27.558;2023-01-15T13:14:39;10.57;;;2.67;;
41865;SDS011;27539;43.222;27.558;2023-01-15T13:17:07;7.40;;;3.58;;
41865;SDS011;27539;43.222;27.558;2023-01-15T13:22:12;4.35;;;3.30;;
41865;SDS011;27539;43.222;27.558;2023-01-15T13:27:14;5.22;;;3.05;;
41865;SDS011;27539;43.222;27.558;2023-01-15T13:32:14;5.60;;;2.88;;
41865;SDS011;27539;43.222;27.558;2023-01-15T13:39:39;6.97;;;3.65;;
41865;SDS011;27539;43.222;27.558;2023-01-15T13:42:10;4.22;;;3.38;;
41865;SDS011;27539;43.222;27.558;2023-01-15T13:45:03;3.63;;;2.67;;
41865;SDS011;27539;43.222;27.558;2023-01-15T13:47:30;9.15;;;3.00;;
41865;SDS011;27539;43.222;27.558;2023-01-15T13:50:00;2.53;;;2.33;;
41865;SDS011;27539;43.222;27.558;2023-01-15T13:54:53;5.83;;;3.73;;
41865;SDS011;27539;43.222;27.558;2023-01-15T13:57:23;3.00;;;2.67;;
41865;SDS011;27539;43.222;27.558;2023-01-15T13:59:49;5.03;;;3.17;;
41865;SDS011;27539;43.222;27.558;2023-01-15T14:04:50;4.50;;;2.92;;
41865;SDS011;27539;43.222;27.558;2023-01-15T14:07:17;11.67;;;5.77;;
41865;SDS011;27539;43.222;27.558;2023-01-15T14:09:42;7.68;;;3.42;;
41865;SDS011;27539;43.222;27.558;2023-01-15T14:33:27;5.65;;;3.45;;
41865;SDS011;27539;43.222;27.558;2023-01-15T14:35:36;5.50;;;3.83;;
41865;SDS011;27539;43.222;27.558;2023-01-15T14:38:05;6.88;;;4.90;;
41865;SDS011;27539;43.222;27.558;2023-01-15T14:40:32;11.50;;;4.05;;
41865;SDS011;27539;43.222;27.558;2023-01-15T14:43:08;9.18;;;4.43;;
41865;SDS011;27539;43.222;27.558;2023-01-15T14:45:38;14.38;;;4.13;;
41865;SDS011;27539;43.222;27.558;2023-01-15T14:48:05;3.80;;;3.00;;
41865;SDS011;27539;43.222;27.558;2023-01-15T14:50:40;18.02;;;3.03;;
41865;SDS011;27539;43.222;27.558;2023-01-15T14:55:54;6.22;;;5.15;;
41865;SDS011;27539;43.222;27.558;2023-01-15T15:00:48;6.25;;;2.25;;
41865;SDS011;27539;43.222;27.558;2023-01-15T15:03:17;8.00;;;3.40;;
41865;SDS011;27539;43.222;27.558;2023-01-15T15:05:43;7.13;;;4.25;;
41865;SDS011;27539;43.222;27.558;2023-01-15T15:08:13;6.82;;;3.80;;
41865;SDS011;27539;43.222;27.558;2023-01-15T15:10:40;7.07;;;2.28;;
41865;SDS011;27539;43.222;27.558;2023-01-15T15:16:10;10.60;;;3.75;;
41865;SDS011;27539;43.222;27.558;2023-01-15T15:18:38;9.95;;;4.68;;
41865;SDS011;27539;43.222;27.558;2023-01-15T15:21:07;11.68;;;5.70;;
41865;SDS011;27539;43.222;27.558;2023-01-15T15:23:52;24.25;;;4.63;;
41865;SDS011;27539;43.222;27.558;2023-01-15T15:26:26;9.18;;;4.50;;
41865;SDS011;27539;43.222;27.558;2023-01-15T15:29:02;11.25;;;5.70;;
41865;SDS011;27539;43.222;27.558;2023-01-15T15:31:29;11.65;;;7.25;;
41865;SDS011;27539;43.222;27.558;2023-01-15T15:33:55;15.35;;;5.90;;
41865;SDS011;27539;43.222;27.558;2023-01-15T15:36:22;11.67;;;6.60;;
41865;SDS011;27539;43.222;27.558;2023-01-15T15:38:51;14.45;;;6.97;;
41865;SDS011;27539;43.222;27.558;2023-01-15T15:41:17;11.25;;;5.53;;
41865;SDS011;27539;43.222;27.558;2023-01-15T15:44:03;7.32;;;4.50;;
41865;SDS011;27539;43.222;27.558;2023-01-15T15:46:48;6.38;;;3.90;;
41865;SDS011;27539;43.222;27.558;2023-01-15T15:49:37;7.53;;;4.65;;
41865;SDS011;27539;43.222;27.558;2023-01-15T15:52:11;13.05;;;6.25;;
41865;SDS011;27539;43.222;27.558;2023-01-15T15:54:37;10.52;;;5.53;;
41865;SDS011;27539;43.222;27.558;2023-01-15T15:57:03;19.50;;;7.73;;
41865;SDS011;27539;43.222;27.558;2023-01-15T15:59:37;9.00;;;6.22;;
41865;SDS011;27539;43.222;27.558;2023-01-15T16:02:07;10.45;;;4.38;;
41865;SDS011;27539;43.222;27.558;2023-01-15T16:04:42;16.42;;;6.18;;
41865;SDS011;27539;43.222;27.558;2023-01-15T16:07:11;12.18;;;6.00;;
41865;SDS011;27539;43.222;27.558;2023-01-15T16:09:37;7.72;;;5.13;;
41865;SDS011;27539;43.222;27.558;2023-01-15T16:12:04;12.85;;;5.50;;
41865;SDS011;27539;43.222;27.558;2023-01-15T16:14:33;7.55;;;5.55;;
41865;SDS011;27539;43.222;27.558;2023-01-15T16:16:58;11.70;;;6.65;;
41865;SDS011;27539;43.222;27.558;2023-01-15T16:19:24;9.87;;;3.57;;
41865;SDS011;27539;43.222;27.558;2023-01-15T16:21:50;6.55;;;4.75;;
41865;SDS011;27539;43.222;27.558;2023-01-15T16:24:23;9.33;;;4.57;;
41865;SDS011;27539;43.222;27.558;2023-01-15T16:27:07;14.93;;;8.93;;
41865;SDS011;27539;43.222;27.558;2023-01-15T16:29:44;12.45;;;6.05;;
41865;SDS011;27539;43.222;27.558;2023-01-15T16:32:11;6.30;;;4.47;;
41865;SDS011;27539;43.222;27.558;2023-01-15T16:34:37;8.63;;;5.57;;
41865;SDS011;27539;43.222;27.558;2023-01-15T16:37:10;4.53;;;3.97;;
41865;SDS011;27539;43.222;27.558;2023-01-15T16:39:43;6.22;;;4.43;;
41865;SDS011;27539;43.222;27.558;2023-01-15T16:44:57;9.75;;;4.55;;
41865;SDS011;27539;43.222;27.558;2023-01-15T16:47:26;11.52;;;7.18;;
41865;SDS011;27539;43.222;27.558;2023-01-15T16:55:01;16.13;;;7.50;;
41865;SDS011;27539;43.222;27.558;2023-01-15T16:57:30;23.03;;;6.33;;
41865;SDS011;27539;43.222;27.558;2023-01-15T17:00:00;7.82;;;4.95;;
41865;SDS011;27539;43.222;27.558;2023-01-15T17:02:27;14.25;;;4.50;;
41865;SDS011;27539;43.222;27.558;2023-01-15T17:04:55;18.48;;;5.55;;
41865;SDS011;27539;43.222;27.558;2023-01-15T17:09:52;7.55;;;3.97;;
41865;SDS011;27539;43.222;27.558;2023-01-15T17:14:43;8.53;;;6.37;;